Terminal Aerodrome Forecast
Issued by NWS

Home | Current Version | Previous Version | Text Only | Print | Product List | Glossary On
Versions: 1 2 3 4 5 6 7 8 9 10 11 12
000
FTUS42 TJSJ 252300 RRA
TAFJPS
TAF
TJPS 252341Z 2600/2624 05005KT P6SM FEW030
     FM261500 13011KT P6SM FEW030 SCT050
     FM262200 08007KT P6SM FEW030
      AMD NOT SKED TIL 260300=

USA.gov is the U.S. government's official web portal to all federal, state and local government web resources and services.